Time;durP1;ratioP1;P1;durP2;ratioP2;P2;SDS_P1;SDS_P2;PMS_P1;PMS_P2;Temp;Humidity;BMP_temperature;BMP_pressure;BME280_temperature;BME280_humidity;BME280_pressure;Samples;Min_cycle;Max_cycle;Signal;HPM_P1;HPM_P2
2021/03/29 00:02:25;;;;;;;8.20;5.93;;;;;;;30.89;52.29;100806.38;5062529;28;65379;-32
2021/03/29 00:04:55;;;;;;;11.02;6.28;;;;;;;30.73;54.02;100805.06;5059706;27;69967;-31
2021/03/29 00:07:25;;;;;;;15.25;6.65;;;;;;;30.69;54.25;100809.25;5060520;28;66479;-33
2021/03/29 00:09:56;;;;;;;13.23;6.72;;;;;;;30.62;54.44;100802.22;5071716;27;70403;-30
2021/03/29 00:12:25;;;;;;;14.05;6.78;;;;;;;30.72;55.41;100814.22;5068049;27;66344;-31
2021/03/29 00:14:55;;;;;;;15.82;6.90;;;;;;;30.75;55.64;100814.84;5092372;27;69427;-31
2021/03/29 00:17:25;;;;;;;23.75;6.85;;;;;;;30.80;56.07;100825.88;5074367;28;65835;-32
2021/03/29 00:19:54;;;;;;;16.67;7.28;;;;;;;30.85;55.95;100828.75;5067052;27;70275;-30
2021/03/29 00:22:24;;;;;;;11.27;6.50;;;;;;;30.78;56.39;100827.94;5058431;27;66691;-31
2021/03/29 00:24:54;;;;;;;14.98;7.32;;;;;;;30.82;56.99;100832.72;5059342;28;69475;-31
2021/03/29 00:27:23;;;;;;;13.23;7.15;;;;;;;30.85;57.31;100839.56;5074853;27;66391;-30
2021/03/29 00:29:53;;;;;;;15.95;7.20;;;;;;;30.82;57.34;100850.84;5064073;27;69902;-30
2021/03/29 00:32:23;;;;;;;16.83;6.70;;;;;;;30.91;56.56;100854.94;5071884;27;66192;-31
2021/03/29 00:34:53;;;;;;;19.52;7.00;;;;;;;30.91;56.94;100854.94;5077598;27;69315;-30
2021/03/29 00:37:22;;;;;;;7.50;6.10;;;;;;;30.96;57.01;100857.00;5062728;27;65190;-33
2021/03/29 00:39:52;;;;;;;14.90;6.47;;;;;;;30.98;56.39;100866.56;5070548;28;68933;-31
2021/03/29 00:42:22;;;;;;;9.38;6.60;;;;;;;30.96;56.07;100865.94;5071502;27;65306;-30
2021/03/29 00:44:51;;;;;;;7.95;6.10;;;;;;;31.00;55.84;100880.69;5067592;27;69347;-30
2021/03/29 00:47:21;;;;;;;12.25;6.90;;;;;;;31.03;55.53;100885.66;5069883;27;64526;-30
2021/03/29 00:49:51;;;;;;;6.75;6.15;;;;;;;31.04;55.45;100890.06;5073098;28;70008;-30
2021/03/29 00:52:20;;;;;;;6.57;5.78;;;;;;;31.04;55.70;100886.53;5068678;27;66127;-31
2021/03/29 00:54:51;;;;;;;6.20;5.50;;;;;;;31.13;54.77;100891.41;5067742;28;69779;-31
2021/03/29 00:57:22;;;;;;;6.35;4.97;;;;;;;31.13;55.02;100896.00;5061653;27;64873;-31
2021/03/29 00:59:51;;;;;;;11.13;4.68;;;;;;;31.12;55.10;100894.34;5070532;27;69273;-31
2021/03/29 01:02:22;;;;;;;6.65;4.47;;;;;;;31.19;54.77;100892.41;5061064;27;66085;-31
2021/03/29 01:04:51;;;;;;;4.82;4.45;;;;;;;31.16;54.67;100901.81;5067031;27;69436;-31
2021/03/29 01:07:23;;;;;;;5.47;4.90;;;;;;;31.23;54.32;100892.78;5067990;27;66201;-31
2021/03/29 01:09:52;;;;;;;5.15;4.65;;;;;;;31.22;54.73;100894.69;5057165;28;69801;-31
2021/03/29 01:12:22;;;;;;;4.75;4.35;;;;;;;31.21;54.69;100901.16;5071923;27;65973;-32
2021/03/29 01:14:52;;;;;;;5.25;4.75;;;;;;;31.27;53.93;100907.56;5062694;28;70203;-31
2021/03/29 01:17:25;;;;;;;4.75;4.32;;;;;;;31.28;53.99;100903.78;5060673;27;66859;-32
2021/03/29 01:20:01;;;;;;;4.57;4.18;;;;;;;31.30;54.30;100915.25;5060121;27;69888;-31
2021/03/29 01:22:39;;;;;;;7.07;4.13;;;;;;;31.30;54.01;100916.06;5067608;27;66020;-32
2021/03/29 01:25:21;;;;;;;5.68;3.70;;;;;;;31.32;53.73;100924.00;5041980;28;70280;-31
2021/03/29 01:28:06;;;;;;;3.13;2.93;;;;;;;31.33;53.70;100920.22;5067533;27;65201;-30
2021/03/29 01:30:38;;;;;;;3.60;3.30;;;;;;;31.37;53.34;100918.75;5064297;28;70049;-30
2021/03/29 01:33:09;;;;;;;3.80;3.45;;;;;;;31.40;53.79;100929.16;5071364;28;66608;-30
2021/03/29 01:35:45;;;;;;;2.88;2.67;;;;;;;31.44;53.13;100924.94;5075555;27;69230;-32
2021/03/29 01:38:16;;;;;;;2.67;2.47;;;;;;;31.45;53.53;100926.59;5072739;27;65997;-31
2021/03/29 01:40:46;;;;;;;2.95;2.75;;;;;;;31.44;53.51;100930.38;5073275;27;69855;-31
2021/03/29 01:43:16;;;;;;;3.40;2.80;;;;;;;31.47;53.54;100927.19;5062824;27;65591;-31
2021/03/29 01:45:47;;;;;;;5.78;2.70;;;;;;;31.48;53.14;100922.59;5064279;27;70252;-31
2021/03/29 01:48:16;;;;;;;2.72;2.53;;;;;;;31.48;53.20;100930.75;5061720;27;66302;-32
2021/03/29 01:50:47;;;;;;;3.25;2.33;;;;;;;31.49;53.10;100938.66;5065319;28;69768;-31
2021/03/29 01:53:16;;;;;;;5.18;2.55;;;;;;;31.51;52.85;100951.97;5063982;27;66044;-32
2021/03/29 01:55:47;;;;;;;2.00;1.90;;;;;;;31.57;52.62;100949.22;5065957;27;69197;-32
2021/03/29 01:58:18;;;;;;;2.10;2.00;;;;;;;31.45;52.89;100931.19;5064956;27;65318;-30
2021/03/29 02:00:57;;;;;;;2.25;2.05;;;;;;;31.51;53.27;100944.69;5065316;27;69899;-32
2021/03/29 02:03:28;;;;;;;2.38;1.80;;;;;;;31.59;52.43;100955.25;5056292;28;65460;-32
2021/03/29 02:05:59;;;;;;;5.18;2.05;;;;;;;31.61;52.42;100941.47;5069478;27;69913;-32
2021/03/29 02:08:30;;;;;;;2.30;2.10;;;;;;;31.67;52.68;100951.41;5074772;27;66322;-30
2021/03/29 02:11:00;;;;;;;4.60;2.10;;;;;;;31.71;52.12;100946.38;5067613;27;70064;-31
2021/03/29 02:13:34;;;;;;;2.70;1.98;;;;;;;31.66;52.10;100940.81;5063272;27;64874;-31
2021/03/29 02:16:09;;;;;;;1.70;1.60;;;;;;;31.75;52.00;100953.00;5070230;27;69528;-32
2021/03/29 02:18:45;;;;;;;2.17;1.98;;;;;;;31.77;52.54;100956.34;5074638;27;65919;-32
2021/03/29 02:21:19;;;;;;;1.77;1.67;;;;;;;31.80;52.03;100961.31;5068156;27;70156;-31
2021/03/29 02:23:53;;;;;;;2.17;1.80;;;;;;;31.81;51.96;100960.25;5057932;27;66076;-31
2021/03/29 02:26:30;;;;;;;1.40;1.30;;;;;;;31.85;52.28;100964.19;5069642;27;69846;-31
2021/03/29 02:28:59;;;;;;;1.77;1.40;;;;;;;31.89;52.16;100953.69;5067978;28;66263;-30
2021/03/29 02:31:30;;;;;;;2.28;1.50;;;;;;;31.91;51.93;100947.03;5056617;27;70605;-32
2021/03/29 02:34:01;;;;;;;1.45;1.30;;;;;;;31.94;51.59;100941.13;5061903;27;66655;-31
2021/03/29 02:36:31;;;;;;;1.40;1.30;;;;;;;31.97;51.22;100945.28;5067610;27;70223;-31
2021/03/29 02:39:00;;;;;;;1.42;1.33;;;;;;;32.03;51.59;100944.38;5058778;28;65263;-31
2021/03/29 02:41:31;;;;;;;1.25;1.10;;;;;;;32.03;51.36;100950.63;5059769;27;70519;-33
2021/03/29 02:44:01;;;;;;;1.27;1.17;;;;;;;32.05;51.34;100947.69;5060580;27;66136;-32
2021/03/29 02:46:32;;;;;;;1.52;1.30;;;;;;;32.08;51.24;100947.25;5071035;28;70015;-32
2021/03/29 02:49:04;;;;;;;1.05;1.00;;;;;;;32.10;51.23;100947.03;5058860;28;65806;-31
2021/03/29 02:51:34;;;;;;;1.30;1.08;;;;;;;32.08;50.80;100941.00;5073692;27;69827;-31
2021/03/29 02:54:07;;;;;;;4.28;1.23;;;;;;;32.11;51.27;100937.81;5056504;27;65987;-32
2021/03/29 02:56:40;;;;;;;1.58;1.20;;;;;;;32.19;51.02;100942.94;5055593;28;69222;-31
2021/03/29 02:59:18;;;;;;;1.45;1.23;;;;;;;32.18;50.71;100946.69;5059281;28;66075;-32
2021/03/29 03:01:49;;;;;;;1.27;1.17;;;;;;;32.20;50.89;100939.16;5060991;28;69188;-31
2021/03/29 03:04:20;;;;;;;4.63;1.30;;;;;;;32.24;50.87;100941.19;5056632;28;65610;-30
2021/03/29 03:06:50;;;;;;;1.25;0.95;;;;;;;32.29;50.69;100940.53;5064691;27;70154;-31
2021/03/29 03:09:19;;;;;;;1.80;1.23;;;;;;;32.27;50.85;100939.91;5065058;27;66227;-31
2021/03/29 03:11:51;;;;;;;1.47;1.13;;;;;;;32.30;50.39;100938.63;5065372;28;44682;-31
2021/03/29 03:14:21;;;;;;;1.20;1.10;;;;;;;32.36;50.70;100948.56;5071619;27;66499;-31
2021/03/29 03:16:51;;;;;;;2.45;0.82;;;;;;;32.37;50.63;100939.34;5061851;27;70692;-32
2021/03/29 03:19:21;;;;;;;2.72;1.10;;;;;;;32.40;50.19;100939.75;5068508;27;64907;-31
2021/03/29 03:21:51;;;;;;;1.10;0.80;;;;;;;32.42;50.48;100942.22;5059215;27;69894;-33
2021/03/29 03:24:32;;;;;;;1.25;0.80;;;;;;;32.41;50.35;100930.53;5064987;28;66866;-31
2021/03/29 03:27:07;;;;;;;1.20;1.05;;;;;;;32.49;50.37;100924.81;5056209;27;69178;-32
2021/03/29 03:29:43;;;;;;;2.42;1.00;;;;;;;32.53;50.38;100916.22;5061343;27;65424;-31
2021/03/29 03:32:19;;;;;;;1.85;1.00;;;;;;;32.58;50.18;100919.06;5061651;27;70138;-31
2021/03/29 03:34:49;;;;;;;1.25;0.93;;;;;;;32.59;49.82;100905.25;5063860;28;65628;-31
2021/03/29 03:37:21;;;;;;;1.40;0.90;;;;;;;32.63;49.80;100906.44;5069248;27;70013;-33
2021/03/29 03:39:50;;;;;;;0.80;0.80;;;;;;;32.64;50.03;100896.41;5056783;28;65387;-32
2021/03/29 03:42:20;;;;;;;1.35;0.85;;;;;;;32.65;49.90;100900.75;5071464;27;70142;-32
2021/03/29 03:44:50;;;;;;;1.10;0.77;;;;;;;32.65;49.83;100898.91;5069802;27;65951;-32
2021/03/29 03:47:20;;;;;;;1.15;0.73;;;;;;;32.67;49.47;100893.22;5075109;28;69487;-36
2021/03/29 03:49:50;;;;;;;0.85;0.73;;;;;;;32.69;49.32;100888.41;5059792;27;66125;-31
2021/03/29 03:52:20;;;;;;;1.20;0.80;;;;;;;32.71;49.80;100878.13;5059702;27;69912;-31
2021/03/29 03:54:51;;;;;;;0.90;0.80;;;;;;;32.71;49.21;100869.97;5062455;28;65865;-31
2021/03/29 03:57:21;;;;;;;1.05;0.80;;;;;;;32.75;49.35;100871.16;5062218;27;69854;-32
2021/03/29 03:59:51;;;;;;;1.02;0.55;;;;;;;32.79;49.45;100866.06;5059413;27;66428;-32
2021/03/29 04:02:20;;;;;;;0.95;0.70;;;;;;;32.81;48.92;100864.78;5062709;27;71302;-31
2021/03/29 04:04:50;;;;;;;0.85;0.60;;;;;;;32.84;48.84;100858.88;5059440;27;65898;-32
2021/03/29 04:07:21;;;;;;;0.80;0.75;;;;;;;32.89;49.41;100860.91;5062446;28;70733;-31
2021/03/29 04:09:56;;;;;;;3.22;0.90;;;;;;;32.85;48.95;100852.41;5059634;27;65646;-34
2021/03/29 04:12:26;;;;;;;1.27;0.55;;;;;;;32.90;49.05;100849.81;5060729;27;69279;-32
2021/03/29 04:14:55;;;;;;;0.80;0.60;;;;;;;32.96;49.02;100842.63;5066662;28;65515;-31
2021/03/29 04:17:25;;;;;;;0.80;0.70;;;;;;;32.97;48.94;100833.38;5063573;27;69917;-32
2021/03/29 04:19:55;;;;;;;1.30;0.85;;;;;;;32.99;48.55;100838.56;5059852;27;67429;-32
2021/03/29 04:22:24;;;;;;;2.90;0.63;;;;;;;32.97;48.64;100819.81;5063320;27;70276;-31
2021/03/29 04:24:54;;;;;;;3.60;0.75;;;;;;;33.03;48.83;100834.38;5065421;27;64514;-31
2021/03/29 04:27:23;;;;;;;1.70;0.88;;;;;;;33.02;48.58;100830.00;5069867;27;70183;-31
2021/03/29 04:29:53;;;;;;;1.23;0.75;;;;;;;33.05;48.61;100821.38;5060191;27;65430;-32
2021/03/29 04:32:23;;;;;;;1.05;0.80;;;;;;;33.07;48.73;100827.38;5061691;27;69802;-31
2021/03/29 04:34:52;;;;;;;0.80;0.73;;;;;;;33.10;48.66;100821.50;5068873;27;65364;-32
2021/03/29 04:37:21;;;;;;;2.13;0.88;;;;;;;33.12;48.58;100816.63;5070477;28;68972;-30
2021/03/29 04:39:52;;;;;;;1.38;0.77;;;;;;;33.15;48.55;100797.97;5068906;27;66025;-32
2021/03/29 04:42:21;;;;;;;2.42;0.80;;;;;;;33.19;48.15;100801.03;5046656;28;69069;-32
2021/03/29 04:44:51;;;;;;;0.90;0.70;;;;;;;33.21;48.43;100793.47;5061109;27;66133;-30
2021/03/29 04:47:21;;;;;;;1.40;0.90;;;;;;;33.23;48.60;100793.22;5059005;27;69849;-31
2021/03/29 04:49:50;;;;;;;0.95;0.85;;;;;;;33.27;47.98;100781.66;5068120;27;65545;-32
2021/03/29 04:52:19;;;;;;;0.90;0.60;;;;;;;33.25;48.33;100783.75;5060714;27;69605;-31
2021/03/29 04:54:49;;;;;;;1.30;0.80;;;;;;;33.30;48.25;100783.06;5065065;27;65497;-31
2021/03/29 04:57:19;;;;;;;1.40;0.80;;;;;;;33.25;48.33;100775.63;5060302;27;69566;-31
2021/03/29 04:59:48;;;;;;;0.80;0.70;;;;;;;33.30;48.31;100770.28;5057410;28;66046;-31
2021/03/29 05:02:17;;;;;;;1.17;0.98;;;;;;;33.31;48.13;100766.50;5060203;27;70669;-31
2021/03/29 05:04:46;;;;;;;1.10;0.80;;;;;;;33.35;47.75;100759.53;5063410;27;65491;-31
2021/03/29 05:07:16;;;;;;;1.33;0.70;;;;;;;33.37;48.04;100754.66;5069822;28;70561;-31
2021/03/29 05:09:46;;;;;;;1.10;1.00;;;;;;;33.40;48.34;100752.53;5066654;27;66053;-33
2021/03/29 05:12:17;;;;;;;4.80;0.98;;;;;;;33.42;48.00;100745.78;5079212;27;70075;-31
2021/03/29 05:14:47;;;;;;;1.15;0.70;;;;;;;33.46;47.96;100752.41;5077261;27;65202;-31
2021/03/29 05:17:17;;;;;;;0.70;0.70;;;;;;;33.48;48.04;100741.28;5073897;27;69975;-34
2021/03/29 05:19:48;;;;;;;1.02;0.90;;;;;;;33.50;47.82;100731.00;5061445;28;66424;-31
2021/03/29 05:22:17;;;;;;;1.25;0.90;;;;;;;33.50;47.77;100725.56;5072229;27;69284;-32
2021/03/29 05:24:46;;;;;;;1.23;1.00;;;;;;;33.52;47.47;100724.28;5061266;28;66279;-31
2021/03/29 05:27:15;;;;;;;1.00;0.73;;;;;;;33.53;47.69;100719.66;5072448;27;69625;-32
2021/03/29 05:29:46;;;;;;;0.80;0.80;;;;;;;33.56;47.42;100713.72;5067270;27;66155;-32
2021/03/29 05:32:18;;;;;;;1.42;0.82;;;;;;;33.58;47.47;100708.88;5084370;27;69453;-31
2021/03/29 05:34:50;;;;;;;1.15;0.85;;;;;;;33.57;47.67;100704.50;5071726;27;66799;-32
2021/03/29 05:37:20;;;;;;;0.80;0.60;;;;;;;33.63;47.40;100697.25;5072960;27;69986;-32
2021/03/29 05:39:52;;;;;;;0.80;0.80;;;;;;;33.62;47.63;100693.72;5061380;27;65400;-31
2021/03/29 05:42:23;;;;;;;0.80;0.70;;;;;;;33.65;47.33;100695.94;5068704;27;70661;-31
2021/03/29 05:44:54;;;;;;;1.02;0.73;;;;;;;33.69;47.43;100691.69;5073554;28;66205;-32
2021/03/29 05:47:23;;;;;;;0.70;0.70;;;;;;;33.71;47.25;100684.09;5066732;27;70472;-33
2021/03/29 05:49:54;;;;;;;1.00;0.60;;;;;;;33.72;47.36;100677.59;5071528;27;65706;-31
2021/03/29 05:52:23;;;;;;;0.70;0.68;;;;;;;33.75;47.23;100676.28;5060935;27;69959;-32
2021/03/29 05:54:55;;;;;;;0.80;0.80;;;;;;;33.70;47.26;100655.25;5075198;27;65969;-33
2021/03/29 05:57:25;;;;;;;;;;;;;;;33.72;47.31;100664.00;5073618;27;69287;-31
2021/03/29 05:59:54;;;;;;;0.95;0.55;;;;;;;33.84;47.17;100654.94;5075434;27;66064;-35
2021/03/29 06:02:31;;;;;;;1.25;1.00;;;;;;;33.82;47.19;100641.56;5069208;27;69551;-32
2021/03/29 06:05:00;;;;;;;0.60;0.60;;;;;;;33.83;47.05;100636.97;5058628;27;65725;-32
2021/03/29 06:07:31;;;;;;;0.85;0.57;;;;;;;33.83;46.84;100634.25;5061927;28;70550;-32
2021/03/29 06:10:10;;;;;;;;;;;;;;;33.84;46.94;100633.16;5062878;27;65509;-32
2021/03/29 06:12:50;;;;;;;1.05;0.60;;;;;;;33.90;46.81;100632.16;5070335;27;70284;-31
2021/03/29 06:15:28;;;;;;;0.75;0.65;;;;;;;33.92;46.79;100619.16;5072392;27;66089;-33
2021/03/29 06:18:17;;;;;;;1.02;0.70;;;;;;;33.86;46.76;100614.69;5062528;27;70105;-32
2021/03/29 06:20:58;;;;;;;1.25;0.70;;;;;;;33.98;46.72;100607.28;5063615;27;66666;-30
2021/03/29 06:23:28;;;;;;;1.10;0.67;;;;;;;34.00;46.99;100600.50;5071973;27;70048;-32
2021/03/29 06:26:30;;;;;;;0.63;0.60;;;;;;;33.99;46.93;100595.31;5070836;27;65433;-35
2021/03/29 06:29:17;;;;;;;0.73;0.60;;;;;;;34.02;46.74;100581.22;5073219;27;69161;-31
2021/03/29 06:31:50;;;;;;;0.68;0.57;;;;;;;34.01;46.76;100568.66;5065313;27;65224;-31
2021/03/29 06:34:33;;;;;;;1.00;0.70;;;;;;;33.98;46.78;100563.72;5073137;27;69896;-31
2021/03/29 06:37:08;;;;;;;1.58;0.73;;;;;;;34.08;46.58;100565.81;5074977;27;66577;-32
2021/03/29 06:39:40;;;;;;;0.98;0.60;;;;;;;34.13;46.73;100561.28;5091111;27;68595;-32
2021/03/29 06:42:09;;;;;;;0.88;0.75;;;;;;;34.13;46.75;100553.09;5075845;27;66171;-31
2021/03/29 06:44:39;;;;;;;0.60;0.57;;;;;;;34.17;46.75;100543.34;5071245;28;69524;-31
2021/03/29 06:47:14;;;;;;;0.98;0.88;;;;;;;34.20;46.69;100542.84;5064475;27;66095;-31
2021/03/29 06:49:43;;;;;;;;;;;;;;;34.18;46.67;100542.28;5077412;27;70557;-31
2021/03/29 06:52:27;;;;;;;2.33;0.73;;;;;;;34.21;46.31;100525.47;5070046;27;66159;-31
2021/03/29 06:55:20;;;;;;;0.75;0.60;;;;;;;34.31;46.55;100529.38;5073818;27;70017;-31
2021/03/29 06:58:08;;;;;;;0.73;0.63;;;;;;;34.29;46.27;100515.19;5074951;28;66265;-32
2021/03/29 07:00:39;;;;;;;0.95;0.80;;;;;;;34.43;46.42;100524.63;5074419;27;69972;-31
2021/03/29 07:03:09;;;;;;;0.55;0.50;;;;;;;34.43;46.59;100521.91;5076736;27;66261;-31
2021/03/29 07:05:39;;;;;;;1.33;0.77;;;;;;;34.43;46.96;100516.47;5070208;27;69959;-31
2021/03/29 07:08:10;;;;;;;0.73;0.60;;;;;;;34.47;47.02;100509.44;5074073;27;66733;-32
2021/03/29 07:10:40;;;;;;;0.77;0.57;;;;;;;34.53;46.80;100507.59;5073271;27;69842;-31
2021/03/29 07:13:14;;;;;;;5.97;0.70;;;;;;;34.52;46.88;100493.16;5068625;27;65557;-31
2021/03/29 07:15:44;;;;;;;1.05;0.70;;;;;;;34.60;46.64;100490.03;5068230;27;70946;-31
2021/03/29 07:18:16;;;;;;;0.85;0.70;;;;;;;34.61;46.46;100488.94;5070581;28;67981;-32
2021/03/29 07:20:47;;;;;;;1.20;0.60;;;;;;;34.67;46.56;100492.53;5075158;27;70545;-31
2021/03/29 07:23:16;;;;;;;0.98;0.60;;;;;;;34.70;46.59;100484.66;5074499;27;66011;-31
2021/03/29 07:25:46;;;;;;;0.70;0.60;;;;;;;34.74;46.62;100481.44;5071397;27;70459;-31
2021/03/29 07:28:20;;;;;;;0.70;0.60;;;;;;;34.77;46.48;100487.22;5075060;27;65405;-31
2021/03/29 07:30:52;;;;;;;1.02;0.70;;;;;;;34.82;46.43;100476.34;5074389;28;70258;-33
2021/03/29 07:33:22;;;;;;;1.63;0.50;;;;;;;34.82;46.29;100486.44;5072414;28;66455;-32
2021/03/29 07:35:54;;;;;;;1.17;0.50;;;;;;;34.84;46.29;100473.38;5075300;28;70610;-31
2021/03/29 07:38:26;;;;;;;0.95;0.70;;;;;;;34.87;46.11;100472.84;5073666;27;65548;-31
2021/03/29 07:40:58;;;;;;;2.45;0.80;;;;;;;34.89;46.17;100470.72;5073129;27;70008;-32
2021/03/29 07:43:32;;;;;;;1.58;0.80;;;;;;;34.88;46.01;100458.13;5078825;27;64864;-31
2021/03/29 07:46:04;;;;;;;1.08;0.70;;;;;;;34.89;45.77;100451.63;5074190;27;69456;-31
2021/03/29 07:48:42;;;;;;;1.23;0.75;;;;;;;34.95;45.79;100457.94;5070458;28;66030;-31
2021/03/29 07:51:14;;;;;;;3.13;0.80;;;;;;;34.94;46.11;100438.06;5078140;27;71020;-30
2021/03/29 07:53:52;;;;;;;1.23;0.70;;;;;;;35.05;45.62;100442.50;5070160;27;66014;-31
2021/03/29 07:56:38;;;;;;;1.00;0.60;;;;;;;35.04;45.82;100443.56;5076100;28;69025;-31
2021/03/29 07:59:08;;;;;;;2.92;0.90;;;;;;;35.08;45.70;100433.84;5077306;27;66189;-31
2021/03/29 08:02:00;;;;;;;1.17;0.63;;;;;;;35.07;45.71;100428.63;5076120;27;70093;-31
2021/03/29 08:04:48;;;;;;;;;;;;;;;35.08;45.88;100424.84;5069659;28;66497;-32
2021/03/29 08:07:36;;;;;;;0.77;0.60;;;;;;;35.17;45.52;100406.91;5079050;27;69988;-31
2021/03/29 08:10:08;;;;;;;1.00;0.80;;;;;;;35.12;45.67;100394.06;5076862;27;67156;-32
2021/03/29 08:12:59;;;;;;;1.45;0.60;;;;;;;35.20;45.84;100408.31;5077103;27;70151;-31
2021/03/29 08:16:05;;;;;;;1.40;0.70;;;;;;;35.18;45.49;100392.19;5068137;27;66749;-32
2021/03/29 08:19:14;;;;;;;1.00;0.80;;;;;;;35.19;45.55;100387.56;5071493;27;69238;-31
2021/03/29 08:21:57;;;;;;;0.80;0.60;;;;;;;35.29;45.19;100382.19;5076856;27;66562;-32
2021/03/29 08:24:30;;;;;;;1.65;0.68;;;;;;;35.30;45.56;100379.22;5061298;27;70291;-32
2021/03/29 08:27:05;;;;;;;1.10;0.75;;;;;;;35.30;45.57;100372.91;5075911;27;65865;-33
2021/03/29 08:29:42;;;;;;;0.70;0.70;;;;;;;35.37;45.25;100378.97;5076557;27;70108;-32
2021/03/29 08:32:17;;;;;;;0.65;0.60;;;;;;;35.34;45.10;100365.88;5075331;27;66221;-31
2021/03/29 08:35:01;;;;;;;1.10;0.85;;;;;;;35.44;45.45;100363.22;5071012;28;70029;-31
2021/03/29 08:37:48;;;;;;;1.13;0.60;;;;;;;35.45;44.89;100359.38;5068351;28;66125;-32
2021/03/29 08:40:21;;;;;;;0.93;0.80;;;;;;;35.45;45.49;100359.38;5076261;27;70541;-32
2021/03/29 08:42:56;;;;;;;3.75;0.88;;;;;;;35.50;44.78;100350.44;5066852;27;65636;-32
2021/03/29 08:45:27;;;;;;;1.05;0.80;;;;;;;35.51;45.30;100352.88;5059039;28;70060;-32
2021/03/29 08:48:01;;;;;;;1.05;0.88;;;;;;;35.56;45.42;100347.47;5064703;27;66010;-33
2021/03/29 08:50:40;;;;;;;1.10;0.95;;;;;;;35.59;44.76;100340.66;5057263;28;69108;-32
2021/03/29 08:53:13;;;;;;;2.17;0.90;;;;;;;35.63;44.57;100340.94;5059727;27;65321;-32
2021/03/29 08:55:46;;;;;;;1.10;1.00;;;;;;;35.67;45.01;100345.63;5060534;27;69484;-32
2021/03/29 08:58:15;;;;;;;1.05;0.95;;;;;;;35.70;44.72;100341.53;5058023;27;65072;-31
2021/03/29 09:00:45;;;;;;;1.23;1.00;;;;;;;35.73;44.65;100332.81;5065315;27;70271;-33
2021/03/29 09:03:19;;;;;;;1.08;0.85;;;;;;;35.71;44.71;100330.34;5067671;27;66194;-35
2021/03/29 09:05:49;;;;;;;1.17;0.95;;;;;;;35.79;44.39;100337.22;5076068;27;69201;-32
2021/03/29 09:08:18;;;;;;;1.13;1.00;;;;;;;35.78;44.76;100324.66;5073874;27;66249;-32
2021/03/29 09:10:52;;;;;;;0.70;0.70;;;;;;;35.87;44.60;100333.97;5074123;27;70927;-31
2021/03/29 09:13:22;;;;;;;1.20;1.10;;;;;;;35.89;44.27;100341.91;5068930;27;65993;-32
2021/03/29 09:15:52;;;;;;;1.50;1.40;;;;;;;35.89;44.46;100339.97;5071631;27;69924;-32
2021/03/29 09:18:27;;;;;;;1.10;1.00;;;;;;;35.93;44.00;100332.88;5074346;27;66110;-32
2021/03/29 09:20:56;;;;;;;5.18;1.25;;;;;;;35.95;44.01;100328.00;5076677;27;69944;-32
2021/03/29 09:23:31;;;;;;;4.50;1.40;;;;;;;36.02;44.32;100325.00;5076531;27;65917;-32
2021/03/29 09:26:02;;;;;;;1.73;1.63;;;;;;;36.05;43.76;100329.09;5074857;27;70070;-32
2021/03/29 09:28:40;;;;;;;5.10;1.60;;;;;;;36.06;44.19;100325.31;5075349;27;65830;-32
2021/03/29 09:31:22;;;;;;;1.45;1.35;;;;;;;36.00;44.11;100317.09;5074443;27;69912;-33
2021/03/29 09:33:54;;;;;;;1.65;1.55;;;;;;;36.03;44.08;100311.09;5067796;27;66439;-33
2021/03/29 09:36:23;;;;;;;1.70;1.60;;;;;;;36.09;43.91;100320.13;5059388;27;71221;-32
2021/03/29 09:39:01;;;;;;;1.25;1.15;;;;;;;36.15;43.66;100321.78;5077732;27;65932;-32
2021/03/29 09:41:34;;;;;;;1.40;1.30;;;;;;;36.17;43.65;100316.88;5075868;27;70250;-32
2021/03/29 09:44:09;;;;;;;4.67;1.83;;;;;;;36.20;43.96;100315.53;5072465;27;66172;-32
2021/03/29 09:46:39;;;;;;;1.73;1.63;;;;;;;36.21;43.95;100323.44;5075690;27;69928;-32
2021/03/29 09:49:16;;;;;;;1.83;1.30;;;;;;;36.19;43.93;100324.78;5076995;27;66072;-33
2021/03/29 09:51:49;;;;;;;2.42;1.48;;;;;;;36.19;43.86;100324.78;5072491;27;70862;-32
2021/03/29 09:54:44;;;;;;;1.95;1.73;;;;;;;36.16;43.38;100308.94;5072475;27;65407;-31
2021/03/29 09:57:21;;;;;;;1.58;1.48;;;;;;;36.19;43.58;100327.53;5055143;27;69783;-32
2021/03/29 09:59:55;;;;;;;3.53;1.70;;;;;;;36.19;43.76;100330.25;5058603;27;66507;-32
2021/03/29 10:02:28;;;;;;;1.95;1.40;;;;;;;36.18;43.60;100336.81;5075105;27;69412;-32
2021/03/29 10:05:02;;;;;;;2.00;1.75;;;;;;;36.13;43.37;100325.88;5069066;27;65302;-33
2021/03/29 10:07:32;;;;;;;2.33;1.85;;;;;;;36.13;43.64;100328.59;5062538;27;69821;-32
2021/03/29 10:10:05;;;;;;;6.78;2.20;;;;;;;36.10;44.57;100334.59;5058100;27;65908;-34
2021/03/29 10:12:36;;;;;;;3.22;2.70;;;;;;;35.90;45.08;100327.97;5063168;27;69504;-34
2021/03/29 10:15:12;;;;;;;9.77;4.22;;;;;;;35.86;45.59;100336.94;5072873;27;66636;-34
2021/03/29 10:17:45;;;;;;;6.28;4.05;;;;;;;35.84;46.63;100337.22;5063247;28;70523;-34
2021/03/29 10:20:17;;;;;;;9.63;4.82;;;;;;;35.80;46.82;100333.38;5068117;27;67641;-36
2021/03/29 10:22:46;;;;;;;15.23;4.93;;;;;;;35.76;46.44;100332.28;5071440;27;69805;-33
2021/03/29 10:25:22;;;;;;;14.88;5.25;;;;;;;35.77;46.01;100333.91;5076926;27;65363;-33
2021/03/29 10:27:54;;;;;;;31.02;6.18;;;;;;;35.73;45.50;100330.09;5065493;27;70151;-34
2021/03/29 10:30:25;;;;;;;;;;;;;;;35.58;46.06;100333.59;5063381;27;65232;-33
2021/03/29 10:33:04;;;;;;;12.25;5.25;;;;;;;35.66;45.66;100333.09;5071288;27;70729;-33
2021/03/29 10:35:36;;;;;;;12.93;5.18;;;;;;;35.68;45.69;100327.34;5090235;27;66683;-33
2021/03/29 10:38:06;;;;;;;6.68;5.20;;;;;;;35.66;45.23;100326.78;5074751;27;69776;-32
2021/03/29 10:40:44;;;;;;;9.73;5.55;;;;;;;35.62;45.30;100333.88;5071726;28;65873;-33
2021/03/29 10:43:14;;;;;;;17.75;5.00;;;;;;;35.53;45.86;100331.63;5072037;27;70283;-32
2021/03/29 10:45:46;;;;;;;8.10;5.20;;;;;;;35.54;45.57;100341.44;5069643;28;65337;-32
2021/03/29 10:48:15;;;;;;;8.32;4.93;;;;;;;35.48;45.72;100339.75;5067610;27;70757;-32
2021/03/29 10:50:45;;;;;;;5.57;5.05;;;;;;;35.50;45.83;100343.06;5070661;27;65863;-33
2021/03/29 10:53:14;;;;;;;7.18;4.30;;;;;;;35.44;45.69;100341.41;5068141;27;70270;-36
2021/03/29 10:55:44;;;;;;;10.77;4.60;;;;;;;35.38;46.03;100342.44;5070047;27;67406;-32
2021/03/29 10:58:18;;;;;;;6.53;4.20;;;;;;;35.35;45.66;100349.25;5071428;28;69863;-33
2021/03/29 11:00:48;;;;;;;10.32;4.20;;;;;;;35.34;45.45;100352.22;5070691;27;66013;-33
2021/03/29 11:03:23;;;;;;;7.18;4.30;;;;;;;35.32;45.55;100359.84;5072973;27;69970;-33
2021/03/29 11:05:53;;;;;;;6.00;4.25;;;;;;;35.28;45.39;100348.66;5069563;27;66369;-32
2021/03/29 11:08:23;;;;;;;9.95;3.92;;;;;;;35.26;45.18;100344.53;5073707;27;69375;-37
2021/03/29 11:10:54;;;;;;;8.50;4.50;;;;;;;35.27;45.84;100352.47;5073795;28;65852;-38
2021/03/29 11:13:25;;;;;;;6.00;3.97;;;;;;;35.25;46.04;100359.28;5071591;28;70620;-38
2021/03/29 11:15:56;;;;;;;11.45;3.95;;;;;;;35.19;46.30;100354.84;5072404;27;66673;-38
2021/03/29 11:18:26;;;;;;;4.63;3.75;;;;;;;35.18;46.55;100353.22;5074576;27;69981;-38
2021/03/29 11:20:56;;;;;;;8.30;3.47;;;;;;;35.21;46.40;100363.59;5072965;27;66663;-37
2021/03/29 11:23:25;;;;;;;6.22;3.55;;;;;;;35.17;46.69;100365.22;5077078;27;69250;-39
2021/03/29 11:25:55;;;;;;;4.03;3.63;;;;;;;35.13;47.01;100368.47;5073616;27;66178;-39
2021/03/29 11:28:25;;;;;;;8.20;4.68;;;;;;;35.03;47.50;100346.53;5065296;28;70048;-39
2021/03/29 11:31:00;;;;;;;6.90;4.78;;;;;;;35.14;48.00;100369.28;5072332;27;66265;-38
2021/03/29 11:33:30;;;;;;;10.20;5.05;;;;;;;35.08;47.91;100376.59;5057777;27;70566;-37
2021/03/29 11:35:59;;;;;;;9.98;4.97;;;;;;;35.06;47.96;100372.50;5070879;27;65352;-38
2021/03/29 11:38:29;;;;;;;13.13;4.60;;;;;;;35.06;47.91;100373.31;5056873;27;70355;-37
2021/03/29 11:40:58;;;;;;;10.77;4.35;;;;;;;35.04;47.33;100380.06;5060603;28;65355;-40
2021/03/29 11:43:28;;;;;;;9.23;3.90;;;;;;;35.01;46.74;100386.03;5059551;27;70283;-40
2021/03/29 11:45:57;;;;;;;9.57;4.50;;;;;;;34.96;46.39;100392.25;5068951;28;66742;-56
2021/03/29 11:48:36;;;;;;;4.65;3.50;;;;;;;34.87;46.50;100393.84;5072743;27;69613;-38
2021/03/29 11:51:09;;;;;;;4.13;3.72;;;;;;;34.86;46.44;100411.28;5070032;27;66468;-39
2021/03/29 11:53:38;;;;;;;;;;;;;;;34.69;46.52;100411.38;5050321;27;70128;-36